createdAt,value
2018-07-11T00:01:22.655Z,91.04
2018-07-11T00:03:54.080Z,91.18
2018-07-11T00:06:25.347Z,91.42
2018-07-11T00:08:55.584Z,92.26
2018-07-11T00:11:25.817Z,92.92
2018-07-11T00:13:56.065Z,93.40
2018-07-11T00:16:26.586Z,93.41
2018-07-11T00:18:56.613Z,91.62
2018-07-11T00:21:26.908Z,91.80
2018-07-11T00:23:57.157Z,91.92
2018-07-11T00:26:27.464Z,92.42
2018-07-11T00:31:33.070Z,93.71
2018-07-11T00:34:03.294Z,93.47
2018-07-11T00:36:33.581Z,92.97
2018-07-11T00:39:04.906Z,93.24
2018-07-11T00:41:35.042Z,94.07
2018-07-11T00:44:05.118Z,93.44
2018-07-11T00:46:35.207Z,93.76
2018-07-11T00:49:05.527Z,93.49
2018-07-11T00:51:35.813Z,93.93
2018-07-11T00:54:05.885Z,93.24
2018-07-11T00:56:36.173Z,94.03
2018-07-11T00:59:12.666Z,93.97
2018-07-11T01:01:42.992Z,93.93
2018-07-11T01:04:13.217Z,92.20
2018-07-11T01:06:43.317Z,92.33
2018-07-11T01:09:13.446Z,91.91
2018-07-11T01:11:43.513Z,92.16
2018-07-11T01:14:13.801Z,93.17
2018-07-11T01:16:43.848Z,93.18
2018-07-11T01:19:15.056Z,93.45
2018-07-11T01:21:45.385Z,94.00
2018-07-11T01:24:15.697Z,94.01
2018-07-11T01:26:45.806Z,94.37
2018-07-11T01:29:16.030Z,94.46
2018-07-11T01:31:46.310Z,94.52
2018-07-11T01:34:16.566Z,94.90
2018-07-11T01:36:46.753Z,94.07
2018-07-11T01:39:17.038Z,94.21
2018-07-11T01:41:47.610Z,93.91
2018-07-11T01:44:17.840Z,94.37
2018-07-11T01:46:50.357Z,94.16
2018-07-11T01:49:20.654Z,95.01
2018-07-11T01:52:02.064Z,94.95
2018-07-11T01:54:32.063Z,94.72
2018-07-11T01:57:02.374Z,94.97
2018-07-11T01:59:35.783Z,95.89
2018-07-11T02:02:06.344Z,96.01
2018-07-11T02:04:39.505Z,96.01
2018-07-11T02:07:10.173Z,95.53
2018-07-11T02:09:40.231Z,96.20
2018-07-11T02:12:10.534Z,95.03
2018-07-11T02:14:41.216Z,94.48
2018-07-11T02:17:11.474Z,94.51
2018-07-11T02:19:41.801Z,94.90
2018-07-11T02:22:12.069Z,94.79
2018-07-11T02:24:42.392Z,94.80
2018-07-11T02:27:12.410Z,95.65
2018-07-11T02:29:42.618Z,95.94
2018-07-11T02:32:12.897Z,96.17
2018-07-11T02:34:43.176Z,95.79
2018-07-11T02:37:13.596Z,95.65
2018-07-11T02:39:43.850Z,95.75
2018-07-11T02:42:14.151Z,95.09
2018-07-11T02:44:44.388Z,94.42
2018-07-11T02:47:45.417Z,94.58
2018-07-11T02:50:15.944Z,94.86
2018-07-11T02:52:46.356Z,94.53
2018-07-11T02:55:16.566Z,94.90
2018-07-11T02:57:46.882Z,94.78
2018-07-11T03:00:17.122Z,95.17
2018-07-11T03:02:47.333Z,94.32
2018-07-11T03:05:17.630Z,95.02
2018-07-11T03:07:47.891Z,94.99
2018-07-11T03:10:17.849Z,94.68
2018-07-11T03:12:48.084Z,95.47
2018-07-11T03:15:18.597Z,95.07
2018-07-11T03:17:48.700Z,95.40
2018-07-11T03:20:18.907Z,95.41
2018-07-11T03:22:49.231Z,95.43
2018-07-11T03:25:19.429Z,95.86
2018-07-11T03:27:49.665Z,94.98
2018-07-11T03:30:19.881Z,95.33
2018-07-11T03:32:50.367Z,95.21
2018-07-11T03:35:20.645Z,95.08
2018-07-11T03:37:51.177Z,94.96
2018-07-11T03:40:21.645Z,95.06
2018-07-11T03:42:51.838Z,95.45
2018-07-11T03:45:22.096Z,95.58
2018-07-11T03:47:52.329Z,95.30
2018-07-11T03:50:22.605Z,95.11
2018-07-11T03:52:52.913Z,95.01
2018-07-11T03:55:23.143Z,95.71
2018-07-11T03:57:53.344Z,94.59
2018-07-11T04:00:26.063Z,95.04
2018-07-11T04:02:57.495Z,94.74
2018-07-11T04:05:27.693Z,94.61
2018-07-11T04:07:57.903Z,93.92
2018-07-11T04:10:28.085Z,93.49
2018-07-11T04:13:01.246Z,93.86
2018-07-11T04:15:31.465Z,93.33
2018-07-11T04:18:01.675Z,93.32
2018-07-11T04:20:31.887Z,93.90
2018-07-11T04:23:02.093Z,93.67
2018-07-11T04:25:32.346Z,94.05
2018-07-11T04:28:02.977Z,94.09
2018-07-11T04:30:33.247Z,93.89
2018-07-11T04:33:03.606Z,93.61
2018-07-11T04:35:33.805Z,92.85
2018-07-11T04:38:04.129Z,92.64
2018-07-11T04:40:34.528Z,93.25
2018-07-11T04:43:04.891Z,93.15
2018-07-11T04:45:35.474Z,92.96
2018-07-11T04:48:06.913Z,92.93
2018-07-11T04:50:37.442Z,92.78
2018-07-11T04:53:12.182Z,92.76
2018-07-11T04:55:43.805Z,93.08
2018-07-11T04:58:14.058Z,93.34
2018-07-11T05:00:44.301Z,92.97
2018-07-11T05:03:14.515Z,92.92
2018-07-11T05:05:44.732Z,92.19
2018-07-11T05:08:15.012Z,91.85
2018-07-11T05:10:45.240Z,90.79
2018-07-11T05:13:15.491Z,90.58
2018-07-11T05:15:45.742Z,89.72
2018-07-11T05:18:16.349Z,89.83
2018-07-11T05:20:47.174Z,90.40
2018-07-11T05:23:17.421Z,90.79
2018-07-11T05:25:47.610Z,90.39
2018-07-11T05:28:17.805Z,90.23
2018-07-11T05:30:48.042Z,90.54
2018-07-11T05:33:18.325Z,89.32
2018-07-11T05:35:48.561Z,90.07
2018-07-11T05:38:19.651Z,89.87
2018-07-11T05:40:49.894Z,89.88
2018-07-11T05:43:20.071Z,89.78
2018-07-11T05:45:50.296Z,90.15
2018-07-11T05:48:21.576Z,90.75
2018-07-11T05:50:51.815Z,90.24
2018-07-11T05:53:21.828Z,90.25
2018-07-11T05:55:52.099Z,90.15
2018-07-11T05:58:22.621Z,90.28
2018-07-11T06:00:52.924Z,90.92
2018-07-11T06:03:23.290Z,90.84
2018-07-11T06:05:53.886Z,90.88
2018-07-11T06:08:24.413Z,90.67
2018-07-11T06:10:54.889Z,90.86
2018-07-11T06:13:24.915Z,90.46
2018-07-11T06:15:55.093Z,90.28
2018-07-11T06:18:25.753Z,89.90
2018-07-11T06:20:56.016Z,90.84
2018-07-11T06:23:25.985Z,90.79
2018-07-11T06:25:56.002Z,90.64
2018-07-11T06:28:26.186Z,90.82
2018-07-11T06:30:56.397Z,91.13
2018-07-11T06:33:26.778Z,90.92
2018-07-11T06:35:56.750Z,90.86
2018-07-11T06:38:26.934Z,91.04
2018-07-11T06:40:57.166Z,91.07
2018-07-11T06:43:27.350Z,89.95
2018-07-11T06:45:57.582Z,90.39
2018-07-11T06:48:27.805Z,90.44
2018-07-11T06:50:57.845Z,90.02
2018-07-11T06:53:27.865Z,88.76
2018-07-11T06:55:58.065Z,89.07
2018-07-11T06:58:28.295Z,88.79
2018-07-11T07:00:58.476Z,87.62
2018-07-11T07:03:28.762Z,88.08
2018-07-11T07:05:59.030Z,88.68
2018-07-11T07:08:29.229Z,86.66
2018-07-11T07:10:59.694Z,86.51
2018-07-11T07:13:30.169Z,84.54
2018-07-11T07:16:01.082Z,83.67
2018-07-11T07:18:31.935Z,83.17
2018-07-11T07:21:02.891Z,84.13
2018-07-11T07:23:34.374Z,83.15
2018-07-11T07:26:05.038Z,81.87
2018-07-11T07:28:35.278Z,82.83
2018-07-11T07:31:05.621Z,81.35
2018-07-11T07:33:35.914Z,80.04
2018-07-11T07:36:06.198Z,80.48
2018-07-11T07:38:39.761Z,80.98
2018-07-11T07:41:10.459Z,80.51
2018-07-11T07:43:42.590Z,80.62
2018-07-11T07:46:13.471Z,79.29
2018-07-11T07:48:44.108Z,79.27
2018-07-11T07:51:14.714Z,77.47
2018-07-11T07:53:45.609Z,78.87
2018-07-11T07:56:16.446Z,79.95
2018-07-11T07:58:46.699Z,79.42
2018-07-11T08:01:17.589Z,79.73
2018-07-11T08:03:47.581Z,78.48
2018-07-11T08:06:18.519Z,79.05
2018-07-11T08:08:50.693Z,78.40
2018-07-11T08:11:21.598Z,78.04
2018-07-11T08:13:52.462Z,78.39
2018-07-11T08:16:23.286Z,78.25
2018-07-11T08:18:54.054Z,76.64
2018-07-11T08:21:24.754Z,76.74
2018-07-11T08:24:06.712Z,74.96
2018-07-11T08:26:48.868Z,74.54
2018-07-11T08:29:31.413Z,73.51
2018-07-11T08:33:15.046Z,73.38
2018-07-11T08:36:00.407Z,74.46
2018-07-11T08:38:56.480Z,75.43
2018-07-11T08:41:38.252Z,73.22
2018-07-11T08:44:19.971Z,69.64
2018-07-11T08:50:03.173Z,69.39
2018-07-11T08:54:48.900Z,64.80
2018-07-11T08:57:28.983Z,64.06
2018-07-11T09:00:12.375Z,62.02
2018-07-11T09:03:58.247Z,61.81
2018-07-11T09:07:37.245Z,60.99
2018-07-11T09:11:22.132Z,62.25
2018-07-11T09:14:38.448Z,63.68
2018-07-11T09:17:17.062Z,63.64
2018-07-11T09:24:09.561Z,62.89
2018-07-11T09:26:40.922Z,64.91
2018-07-11T09:29:11.974Z,66.15
2018-07-11T09:31:43.487Z,66.94
2018-07-11T09:34:14.405Z,67.18
2018-07-11T09:36:45.410Z,64.67
2018-07-11T09:39:16.216Z,63.95
2018-07-11T09:41:47.036Z,63.45
2018-07-11T09:44:17.590Z,63.37
2018-07-11T09:46:48.206Z,66.34
2018-07-11T09:49:18.989Z,65.83
2018-07-11T09:51:49.936Z,66.34
2018-07-11T09:54:20.761Z,68.47
2018-07-11T09:56:51.885Z,67.84
2018-07-11T09:59:22.173Z,69.62
2018-07-11T10:01:53.055Z,69.60
2018-07-11T10:04:23.298Z,69.98
2018-07-11T10:06:54.544Z,70.30
2018-07-11T10:09:24.789Z,69.17
2018-07-11T10:11:55.040Z,69.83
2018-07-11T10:14:25.824Z,71.08
2018-07-11T10:16:56.035Z,70.31
2018-07-11T10:19:26.865Z,68.20
2018-07-11T10:21:57.431Z,66.83
2018-07-11T10:24:28.270Z,64.60
2018-07-11T10:26:59.061Z,65.20
2018-07-11T10:29:29.865Z,63.73
2018-07-11T10:32:00.720Z,64.11
2018-07-11T10:34:31.567Z,63.72
2018-07-11T10:37:02.571Z,63.17
2018-07-11T10:39:33.429Z,62.32
2018-07-11T10:42:04.213Z,62.52
2018-07-11T10:44:35.025Z,61.86
2018-07-11T10:47:07.781Z,62.03
2018-07-11T10:49:38.613Z,58.49
2018-07-11T10:52:09.706Z,56.94
2018-07-11T10:54:40.969Z,55.31
2018-07-11T10:57:11.733Z,54.13
2018-07-11T10:59:42.838Z,54.64
2018-07-11T11:02:18.112Z,52.09
2018-07-11T11:04:48.994Z,53.51
2018-07-11T11:07:19.997Z,53.05
2018-07-11T11:09:50.841Z,51.79
2018-07-11T11:12:21.651Z,52.48
2018-07-11T11:14:52.521Z,52.92
2018-07-11T11:17:23.329Z,51.88
2018-07-11T11:19:54.149Z,52.90
2018-07-11T11:22:24.957Z,52.52
2018-07-11T11:24:55.865Z,51.69
2018-07-11T11:27:26.638Z,53.00
2018-07-11T11:29:57.537Z,52.25
2018-07-11T11:32:28.454Z,53.58
2018-07-11T11:34:59.575Z,53.30
2018-07-11T11:37:30.773Z,51.49
2018-07-11T11:40:01.604Z,50.92
2018-07-11T11:42:32.603Z,51.68
2018-07-11T11:45:03.468Z,50.72
2018-07-11T11:47:34.275Z,51.49
2018-07-11T11:50:05.481Z,51.27
2018-07-11T11:52:36.268Z,53.13
2018-07-11T11:55:07.106Z,54.12
2018-07-11T11:57:37.871Z,56.39
2018-07-11T12:00:08.698Z,54.92
2018-07-11T12:02:39.474Z,55.54
2018-07-11T12:05:10.285Z,51.24
2018-07-11T12:07:41.147Z,49.97
2018-07-11T12:10:12.080Z,50.68
2018-07-11T12:12:42.885Z,49.84
2018-07-11T12:15:14.541Z,50.84
2018-07-11T12:17:45.333Z,50.04
2018-07-11T12:20:16.159Z,50.37
2018-07-11T12:22:46.996Z,50.18
2018-07-11T12:25:18.073Z,49.74
2018-07-11T12:27:48.822Z,49.40
2018-07-11T12:30:19.824Z,49.82
2018-07-11T12:32:50.533Z,49.32
2018-07-11T12:35:21.311Z,50.17
2018-07-11T12:37:52.360Z,50.88
2018-07-11T12:40:22.987Z,50.83
2018-07-11T12:42:53.761Z,51.00
2018-07-11T12:45:24.577Z,49.74
2018-07-11T12:48:00.444Z,50.52
2018-07-11T12:50:31.249Z,51.37
2018-07-11T12:53:02.185Z,51.32
2018-07-11T12:55:33.045Z,52.46
2018-07-11T12:58:03.913Z,51.24
2018-07-11T13:00:34.533Z,53.36
2018-07-11T13:03:05.357Z,49.72
2018-07-11T13:05:36.177Z,51.59
2018-07-11T13:08:06.825Z,50.96
2018-07-11T13:10:38.001Z,50.94
2018-07-11T13:13:08.778Z,50.63
2018-07-11T13:15:39.587Z,50.71
2018-07-11T13:18:10.386Z,50.79
2018-07-11T13:20:41.191Z,50.34
2018-07-11T13:23:11.972Z,51.19
2018-07-11T13:25:42.643Z,51.44
2018-07-11T13:28:13.662Z,51.72
2018-07-11T13:30:44.529Z,50.98
2018-07-11T13:33:16.374Z,49.96
2018-07-11T13:35:47.188Z,49.73
2018-07-11T13:38:18.193Z,50.99
2018-07-11T13:40:48.972Z,50.62
2018-07-11T13:43:19.737Z,51.51
2018-07-11T13:45:50.294Z,50.30
2018-07-11T13:48:20.917Z,49.61
2018-07-11T13:50:52.093Z,51.03
2018-07-11T13:53:22.934Z,51.32
2018-07-11T13:55:53.786Z,49.93
2018-07-11T13:58:24.395Z,52.85
2018-07-11T14:00:59.146Z,51.87
2018-07-11T14:03:30.057Z,51.30
2018-07-11T14:06:00.681Z,51.37
2018-07-11T14:08:31.519Z,53.42
2018-07-11T14:11:03.402Z,52.86
2018-07-11T14:13:34.738Z,53.85
2018-07-11T14:16:05.458Z,51.68
2018-07-11T14:18:36.281Z,52.20
2018-07-11T14:21:07.689Z,52.79
2018-07-11T14:23:41.169Z,52.72
2018-07-11T14:26:14.794Z,51.60
2018-07-11T14:28:53.375Z,51.91
2018-07-11T14:31:35.912Z,53.00
2018-07-11T14:34:08.676Z,53.35
2018-07-11T14:36:39.632Z,54.43
2018-07-11T14:39:10.557Z,52.39
2018-07-11T14:41:41.344Z,53.15
2018-07-11T14:44:12.216Z,52.92
2018-07-11T14:46:43.135Z,52.44
2018-07-11T14:49:15.745Z,54.56
2018-07-11T14:51:46.661Z,53.97
2018-07-11T14:54:17.821Z,54.58
2018-07-11T14:56:48.755Z,55.05
2018-07-11T14:59:19.603Z,54.75
2018-07-11T15:01:50.441Z,55.47
2018-07-11T15:04:21.202Z,56.86
2018-07-11T15:06:51.782Z,57.41
2018-07-11T15:09:22.850Z,59.32
2018-07-11T15:11:54.024Z,60.87
2018-07-11T15:14:25.018Z,59.83
2018-07-11T15:16:55.906Z,60.63
2018-07-11T15:19:26.733Z,60.08
2018-07-11T15:21:57.535Z,60.91
2018-07-11T15:24:28.371Z,61.07
2018-07-11T15:26:59.106Z,62.19
2018-07-11T15:29:29.677Z,61.69
2018-07-11T15:32:00.893Z,62.77
2018-07-11T15:34:32.049Z,63.19
2018-07-11T15:37:02.985Z,63.78
2018-07-11T15:39:33.974Z,64.15
2018-07-11T15:42:05.076Z,64.41
2018-07-11T15:44:35.679Z,64.51
2018-07-11T15:47:07.051Z,65.09
2018-07-11T15:49:37.876Z,65.03
2018-07-11T15:52:08.745Z,65.56
2018-07-11T15:54:40.054Z,65.33
2018-07-11T15:57:11.217Z,65.70
2018-07-11T15:59:53.626Z,65.14
2018-07-11T16:02:24.742Z,65.26
2018-07-11T16:04:55.601Z,64.56
2018-07-11T16:07:29.873Z,62.87
2018-07-11T16:10:00.909Z,62.80
2018-07-11T16:12:31.713Z,62.57
2018-07-11T16:15:02.481Z,60.77
2018-07-11T16:17:33.551Z,58.37
2018-07-11T16:20:04.389Z,57.88
2018-07-11T16:22:35.272Z,59.34
2018-07-11T16:25:06.513Z,59.24
2018-07-11T16:27:37.133Z,60.05
2018-07-11T16:30:07.898Z,60.49
2018-07-11T16:32:38.743Z,60.58
2018-07-11T16:35:09.505Z,62.52
2018-07-11T16:37:40.325Z,64.68
2018-07-11T16:40:11.182Z,65.06
2018-07-11T16:42:42.707Z,65.26
2018-07-11T16:45:13.828Z,67.21
2018-07-11T16:47:45.418Z,68.10
2018-07-11T16:50:16.897Z,70.41
2018-07-11T16:52:47.887Z,71.61
2018-07-11T16:55:18.508Z,72.82
2018-07-11T16:57:50.843Z,74.74
2018-07-11T17:00:25.137Z,75.83
2018-07-11T17:03:12.228Z,75.20
2018-07-11T17:05:48.828Z,75.82
2018-07-11T17:08:29.565Z,78.28
2018-07-11T17:11:07.745Z,78.27
2018-07-11T17:13:38.170Z,78.32
2018-07-11T17:16:08.549Z,78.61
2018-07-11T17:18:45.127Z,79.02
2018-07-11T17:21:23.112Z,79.46
2018-07-11T17:23:57.616Z,80.54
2018-07-11T17:26:27.889Z,84.27
2018-07-11T17:28:59.973Z,87.51
2018-07-11T17:31:30.491Z,90.49
2018-07-11T17:34:00.721Z,92.54
2018-07-11T17:36:33.900Z,94.54
2018-07-11T17:39:05.326Z,95.08
2018-07-11T17:41:36.402Z,95.57
2018-07-11T17:44:06.672Z,96.18
2018-07-11T17:46:37.224Z,96.96
2018-07-11T17:49:10.919Z,97.25
2018-07-11T17:52:19.085Z,97.97
2018-07-11T17:55:10.597Z,98.45
2018-07-11T17:58:01.127Z,99.01
2018-07-11T18:00:36.835Z,99.32
2018-07-11T18:03:17.701Z,99.44
2018-07-11T18:05:57.328Z,99.85
2018-07-11T18:08:33.946Z,99.89
2018-07-11T18:11:04.291Z,100.00
2018-07-11T18:13:42.954Z,100.00
2018-07-11T18:16:40.106Z,100.00
2018-07-11T18:19:21.089Z,100.00
2018-07-11T18:22:02.969Z,100.00
2018-07-11T18:24:41.011Z,100.00
2018-07-11T18:27:22.617Z,100.00
2018-07-11T18:30:03.544Z,100.00
2018-07-11T18:32:50.942Z,100.00
2018-07-11T18:35:31.382Z,100.00
2018-07-11T18:39:08.182Z,100.00
2018-07-11T18:41:42.841Z,100.00
2018-07-11T18:45:11.628Z,100.00
2018-07-11T18:47:58.113Z,100.00
2018-07-11T18:50:46.958Z,100.00
2018-07-11T18:54:26.799Z,100.00
2018-07-11T18:57:08.876Z,100.00
2018-07-11T19:00:50.338Z,100.00
2018-07-11T19:03:31.501Z,100.00
2018-07-11T19:06:13.753Z,100.00
2018-07-11T19:08:53.681Z,100.00
2018-07-11T19:11:28.400Z,100.00
2018-07-11T19:14:05.142Z,100.00
2018-07-11T19:18:53.197Z,100.00
2018-07-11T19:21:56.857Z,100.00
2018-07-11T19:24:38.694Z,100.00
2018-07-11T19:27:21.283Z,100.00
2018-07-11T19:30:02.967Z,100.00
2018-07-11T19:32:39.206Z,100.00
2018-07-11T19:35:16.695Z,100.00
2018-07-11T19:38:57.090Z,100.00
2018-07-11T19:41:37.265Z,100.00
2018-07-11T19:44:21.003Z,100.00
2018-07-11T19:49:05.933Z,100.00
2018-07-11T19:51:49.340Z,100.00
2018-07-11T19:54:35.462Z,100.00
2018-07-11T19:57:05.492Z,100.00
2018-07-11T19:59:35.899Z,100.00
2018-07-11T20:02:06.209Z,100.00
2018-07-11T20:04:36.544Z,100.00
2018-07-11T20:07:07.187Z,100.00
2018-07-11T20:09:37.471Z,100.00
2018-07-11T20:12:07.474Z,100.00
2018-07-11T20:14:37.692Z,100.00
2018-07-11T20:17:07.908Z,100.00
2018-07-11T20:19:38.139Z,100.00
2018-07-11T20:22:08.342Z,100.00
2018-07-11T20:24:38.822Z,100.00
2018-07-11T20:27:09.040Z,100.00
2018-07-11T20:29:39.329Z,100.00
2018-07-11T20:32:09.606Z,100.00
2018-07-11T20:34:39.865Z,100.00
2018-07-11T20:37:10.456Z,100.00
2018-07-11T20:39:40.685Z,100.00
2018-07-11T20:42:10.985Z,100.00
2018-07-11T20:44:41.204Z,100.00
2018-07-11T20:47:11.443Z,100.00
2018-07-11T20:49:41.698Z,100.00
2018-07-11T20:52:11.900Z,100.00
2018-07-11T20:54:42.126Z,100.00
2018-07-11T20:57:12.685Z,100.00
2018-07-11T20:59:53.937Z,100.00
2018-07-11T21:02:35.442Z,100.00
2018-07-11T21:07:29.043Z,100.00
2018-07-11T21:11:17.145Z,100.00
2018-07-11T21:18:04.536Z,100.00
2018-07-11T21:20:35.003Z,100.00
2018-07-11T21:23:05.306Z,100.00
2018-07-11T21:25:35.709Z,100.00
2018-07-11T21:28:05.945Z,100.00
2018-07-11T21:30:37.422Z,100.00
2018-07-11T21:33:11.208Z,100.00
2018-07-11T21:35:42.797Z,100.00
2018-07-11T21:38:13.088Z,100.00
2018-07-11T21:40:43.448Z,100.00
2018-07-11T21:43:16.267Z,100.00
2018-07-11T21:45:46.675Z,100.00
2018-07-11T21:48:16.886Z,100.00
2018-07-11T21:50:47.810Z,100.00
2018-07-11T21:53:19.749Z,100.00
2018-07-11T21:55:49.995Z,100.00
2018-07-11T21:58:20.369Z,100.00
2018-07-11T22:00:50.649Z,100.00
2018-07-11T22:03:20.648Z,100.00
2018-07-11T22:05:50.861Z,100.00
2018-07-11T22:08:21.061Z,100.00
2018-07-11T22:10:51.270Z,100.00
2018-07-11T22:13:21.538Z,100.00
2018-07-11T22:15:51.821Z,100.00
2018-07-11T22:18:35.769Z,100.00
2018-07-11T22:21:05.625Z,99.53
2018-07-11T22:23:33.899Z,99.71
2018-07-11T22:26:02.404Z,100.00
2018-07-11T22:28:30.678Z,99.47
2018-07-11T22:30:58.949Z,99.39
2018-07-11T22:33:27.328Z,99.83
2018-07-11T22:35:55.986Z,99.75
2018-07-11T22:38:24.281Z,99.78
2018-07-11T22:40:52.618Z,100.00
2018-07-11T22:43:20.973Z,100.00
2018-07-11T22:45:49.278Z,100.00
2018-07-11T22:48:17.533Z,100.00
2018-07-11T22:50:45.928Z,100.00
2018-07-11T22:53:14.315Z,100.00
2018-07-11T22:55:42.782Z,100.00
2018-07-11T22:58:11.424Z,100.00
2018-07-11T23:00:40.276Z,100.00
2018-07-11T23:03:08.777Z,100.00
2018-07-11T23:05:37.092Z,100.00
2018-07-11T23:08:05.461Z,100.00
2018-07-11T23:10:33.761Z,100.00
2018-07-11T23:13:02.014Z,99.95
2018-07-11T23:15:30.273Z,99.96
2018-07-11T23:17:58.529Z,100.00
2018-07-11T23:20:26.876Z,100.00
2018-07-11T23:22:55.355Z,100.00
2018-07-11T23:25:23.654Z,100.00
2018-07-11T23:27:51.925Z,100.00
2018-07-11T23:30:20.223Z,100.00
2018-07-11T23:32:48.535Z,100.00
2018-07-11T23:35:16.795Z,99.50
2018-07-11T23:37:45.097Z,99.91
2018-07-11T23:40:13.446Z,99.05
2018-07-11T23:42:41.709Z,99.12
2018-07-11T23:45:10.001Z,98.95
2018-07-11T23:47:38.270Z,99.39
2018-07-11T23:50:06.533Z,99.43
2018-07-11T23:52:34.801Z,98.29
2018-07-11T23:55:03.089Z,98.46
2018-07-11T23:57:31.403Z,98.86
2018-07-11T23:59:59.694Z,99.04
